Terminal Aerodrome Forecast
Issued by NWS Melbourne, FL

Home | Current Version | Previous Version | Text Only | Print | Product List | Glossary On
Versions: 1 2 3 4 5 6 7 8 9 10 11 12 13 14 15 16 17 18 19 20
000
FTUS42 KMLB 202325
TAFDAB
TAF
KDAB 202325Z 2100/2124 09003KT P6SM FEW025 OVC120
     FM211300 11007KT P6SM VCSH SCT025 BKN050 OVC100
      TEMPO 2114/2117 3SM SHRA BKN020 OVC040
     FM211700 13012KT P6SM VCSH SCT025 BKN050 OVC080
      TEMPO 2117/2121 3SM TSRA BKN015CB OVC030
     FM212200 12011KT 5SM -RA SCT010 BKN020 OVC040=

USA.gov is the U.S. government's official web portal to all federal, state and local government web resources and services.